sensor_id;sensor_type;location;lat;lon;timestamp;P1;durP1;ratioP1;P2;durP2;ratioP2
79706;SDS011;69200;53.612;-2.416;2023-11-22T00:00:08;10.32;;;3.38;;
79706;SDS011;69200;53.612;-2.416;2023-11-22T00:02:35;8.90;;;3.42;;
79706;SDS011;69200;53.612;-2.416;2023-11-22T00:05:00;12.20;;;4.07;;
79706;SDS011;69200;53.612;-2.416;2023-11-22T00:07:26;9.35;;;3.60;;
79706;SDS011;69200;53.612;-2.416;2023-11-22T00:09:55;11.93;;;4.63;;
79706;SDS011;69200;53.612;-2.416;2023-11-22T00:12:21;10.68;;;4.50;;
79706;SDS011;69200;53.612;-2.416;2023-11-22T00:14:48;11.90;;;4.68;;
79706;SDS011;69200;53.612;-2.416;2023-11-22T00:17:14;10.18;;;4.53;;
79706;SDS011;69200;53.612;-2.416;2023-11-22T00:19:42;11.68;;;3.80;;
79706;SDS011;69200;53.612;-2.416;2023-11-22T00:22:09;11.23;;;3.60;;
79706;SDS011;69200;53.612;-2.416;2023-11-22T00:24:40;8.13;;;3.72;;
79706;SDS011;69200;53.612;-2.416;2023-11-22T00:27:06;10.32;;;3.33;;
79706;SDS011;69200;53.612;-2.416;2023-11-22T00:29:33;8.70;;;3.72;;
79706;SDS011;69200;53.612;-2.416;2023-11-22T00:31:58;10.88;;;3.72;;
79706;SDS011;69200;53.612;-2.416;2023-11-22T00:34:24;9.38;;;3.53;;
79706;SDS011;69200;53.612;-2.416;2023-11-22T00:36:50;10.18;;;4.53;;
79706;SDS011;69200;53.612;-2.416;2023-11-22T00:39:16;9.93;;;3.97;;
79706;SDS011;69200;53.612;-2.416;2023-11-22T00:41:41;9.15;;;3.67;;
79706;SDS011;69200;53.612;-2.416;2023-11-22T00:44:07;9.15;;;3.78;;
79706;SDS011;69200;53.612;-2.416;2023-11-22T00:46:33;10.10;;;4.32;;
79706;SDS011;69200;53.612;-2.416;2023-11-22T00:48:58;9.85;;;4.63;;
79706;SDS011;69200;53.612;-2.416;2023-11-22T00:51:24;9.73;;;4.00;;
79706;SDS011;69200;53.612;-2.416;2023-11-22T00:53:49;8.90;;;3.75;;
79706;SDS011;69200;53.612;-2.416;2023-11-22T00:56:16;10.55;;;4.53;;
79706;SDS011;69200;53.612;-2.416;2023-11-22T00:58:42;12.30;;;5.05;;
79706;SDS011;69200;53.612;-2.416;2023-11-22T01:01:07;10.38;;;4.93;;
79706;SDS011;69200;53.612;-2.416;2023-11-22T01:03:33;16.08;;;5.10;;
79706;SDS011;69200;53.612;-2.416;2023-11-22T01:05:59;12.05;;;4.78;;
79706;SDS011;69200;53.612;-2.416;2023-11-22T01:08:24;10.25;;;3.65;;
79706;SDS011;69200;53.612;-2.416;2023-11-22T01:10:49;12.88;;;4.53;;
79706;SDS011;69200;53.612;-2.416;2023-11-22T01:13:15;7.75;;;3.47;;
79706;SDS011;69200;53.612;-2.416;2023-11-22T01:15:40;10.55;;;3.70;;
79706;SDS011;69200;53.612;-2.416;2023-11-22T01:18:06;9.73;;;4.63;;
79706;SDS011;69200;53.612;-2.416;2023-11-22T01:20:32;13.07;;;4.95;;
79706;SDS011;69200;53.612;-2.416;2023-11-22T01:22:58;14.30;;;5.25;;
79706;SDS011;69200;53.612;-2.416;2023-11-22T01:25:23;12.75;;;5.38;;
79706;SDS011;69200;53.612;-2.416;2023-11-22T01:27:49;10.57;;;4.55;;
79706;SDS011;69200;53.612;-2.416;2023-11-22T01:30:14;11.68;;;4.55;;
79706;SDS011;69200;53.612;-2.416;2023-11-22T01:32:40;13.77;;;4.75;;
79706;SDS011;69200;53.612;-2.416;2023-11-22T01:35:05;10.27;;;4.45;;
79706;SDS011;69200;53.612;-2.416;2023-11-22T01:37:31;9.63;;;4.65;;
79706;SDS011;69200;53.612;-2.416;2023-11-22T01:39:57;12.18;;;4.68;;
79706;SDS011;69200;53.612;-2.416;2023-11-22T01:42:22;11.02;;;4.68;;
79706;SDS011;69200;53.612;-2.416;2023-11-22T01:44:49;10.02;;;4.53;;
79706;SDS011;69200;53.612;-2.416;2023-11-22T01:47:14;10.32;;;4.88;;
79706;SDS011;69200;53.612;-2.416;2023-11-22T01:49:40;11.07;;;4.65;;
79706;SDS011;69200;53.612;-2.416;2023-11-22T01:52:06;12.90;;;4.85;;
79706;SDS011;69200;53.612;-2.416;2023-11-22T01:54:32;12.00;;;4.70;;
79706;SDS011;69200;53.612;-2.416;2023-11-22T01:56:58;10.65;;;4.30;;
79706;SDS011;69200;53.612;-2.416;2023-11-22T01:59:24;12.02;;;4.38;;
79706;SDS011;69200;53.612;-2.416;2023-11-22T02:01:53;11.90;;;4.43;;
79706;SDS011;69200;53.612;-2.416;2023-11-22T02:04:19;13.73;;;5.30;;
79706;SDS011;69200;53.612;-2.416;2023-11-22T02:06:45;15.68;;;4.93;;
79706;SDS011;69200;53.612;-2.416;2023-11-22T02:09:11;11.77;;;4.50;;
79706;SDS011;69200;53.612;-2.416;2023-11-22T02:11:40;10.18;;;4.63;;
79706;SDS011;69200;53.612;-2.416;2023-11-22T02:14:10;11.63;;;5.32;;
79706;SDS011;69200;53.612;-2.416;2023-11-22T02:16:36;12.25;;;4.75;;
79706;SDS011;69200;53.612;-2.416;2023-11-22T02:19:02;11.45;;;4.93;;
79706;SDS011;69200;53.612;-2.416;2023-11-22T02:21:30;14.85;;;5.13;;
79706;SDS011;69200;53.612;-2.416;2023-11-22T02:23:55;11.05;;;4.95;;
79706;SDS011;69200;53.612;-2.416;2023-11-22T02:26:21;10.90;;;4.45;;
79706;SDS011;69200;53.612;-2.416;2023-11-22T02:28:46;12.07;;;4.85;;
79706;SDS011;69200;53.612;-2.416;2023-11-22T02:31:13;10.73;;;4.30;;
79706;SDS011;69200;53.612;-2.416;2023-11-22T02:33:38;12.05;;;4.80;;
79706;SDS011;69200;53.612;-2.416;2023-11-22T02:36:04;9.30;;;4.55;;
79706;SDS011;69200;53.612;-2.416;2023-11-22T02:38:31;10.85;;;5.03;;
79706;SDS011;69200;53.612;-2.416;2023-11-22T02:40:56;10.50;;;4.85;;
79706;SDS011;69200;53.612;-2.416;2023-11-22T02:43:21;10.15;;;5.00;;
79706;SDS011;69200;53.612;-2.416;2023-11-22T02:45:48;9.93;;;4.65;;
79706;SDS011;69200;53.612;-2.416;2023-11-22T02:48:13;12.13;;;5.05;;
79706;SDS011;69200;53.612;-2.416;2023-11-22T02:50:39;11.75;;;4.50;;
79706;SDS011;69200;53.612;-2.416;2023-11-22T02:53:04;10.48;;;4.72;;
79706;SDS011;69200;53.612;-2.416;2023-11-22T02:55:30;10.68;;;4.75;;
79706;SDS011;69200;53.612;-2.416;2023-11-22T02:57:55;12.15;;;4.95;;
79706;SDS011;69200;53.612;-2.416;2023-11-22T03:00:21;9.60;;;4.28;;
79706;SDS011;69200;53.612;-2.416;2023-11-22T03:02:46;9.65;;;3.72;;
79706;SDS011;69200;53.612;-2.416;2023-11-22T03:05:12;8.68;;;3.67;;
79706;SDS011;69200;53.612;-2.416;2023-11-22T03:07:39;9.45;;;4.50;;
79706;SDS011;69200;53.612;-2.416;2023-11-22T03:10:06;9.57;;;4.15;;
79706;SDS011;69200;53.612;-2.416;2023-11-22T03:12:33;9.05;;;4.10;;
79706;SDS011;69200;53.612;-2.416;2023-11-22T03:14:59;9.82;;;4.70;;
79706;SDS011;69200;53.612;-2.416;2023-11-22T03:17:27;11.73;;;5.05;;
79706;SDS011;69200;53.612;-2.416;2023-11-22T03:19:53;13.20;;;4.55;;
79706;SDS011;69200;53.612;-2.416;2023-11-22T03:22:20;9.90;;;4.03;;
79706;SDS011;69200;53.612;-2.416;2023-11-22T03:24:46;10.45;;;4.32;;
79706;SDS011;69200;53.612;-2.416;2023-11-22T03:27:12;10.40;;;4.20;;
79706;SDS011;69200;53.612;-2.416;2023-11-22T03:29:38;10.75;;;4.28;;
79706;SDS011;69200;53.612;-2.416;2023-11-22T03:32:03;10.88;;;4.28;;
79706;SDS011;69200;53.612;-2.416;2023-11-22T03:34:29;9.02;;;3.83;;
79706;SDS011;69200;53.612;-2.416;2023-11-22T03:36:54;11.60;;;4.47;;
79706;SDS011;69200;53.612;-2.416;2023-11-22T03:39:19;9.52;;;3.72;;
79706;SDS011;69200;53.612;-2.416;2023-11-22T03:41:45;8.73;;;3.50;;
79706;SDS011;69200;53.612;-2.416;2023-11-22T03:44:10;8.45;;;3.83;;
79706;SDS011;69200;53.612;-2.416;2023-11-22T03:46:36;7.75;;;3.85;;
79706;SDS011;69200;53.612;-2.416;2023-11-22T03:49:05;8.95;;;3.55;;
79706;SDS011;69200;53.612;-2.416;2023-11-22T03:51:38;11.60;;;3.40;;
79706;SDS011;69200;53.612;-2.416;2023-11-22T03:54:04;10.48;;;3.45;;
79706;SDS011;69200;53.612;-2.416;2023-11-22T03:56:29;7.07;;;3.55;;
79706;SDS011;69200;53.612;-2.416;2023-11-22T03:58:55;8.35;;;4.20;;
79706;SDS011;69200;53.612;-2.416;2023-11-22T04:01:21;9.35;;;3.42;;
79706;SDS011;69200;53.612;-2.416;2023-11-22T04:03:47;9.13;;;3.78;;
79706;SDS011;69200;53.612;-2.416;2023-11-22T04:06:15;8.57;;;3.50;;
79706;SDS011;69200;53.612;-2.416;2023-11-22T04:08:45;9.57;;;3.63;;
79706;SDS011;69200;53.612;-2.416;2023-11-22T04:11:13;9.65;;;3.55;;
79706;SDS011;69200;53.612;-2.416;2023-11-22T04:13:39;8.25;;;3.15;;
79706;SDS011;69200;53.612;-2.416;2023-11-22T04:16:04;9.40;;;3.53;;
79706;SDS011;69200;53.612;-2.416;2023-11-22T04:18:37;11.00;;;3.50;;
79706;SDS011;69200;53.612;-2.416;2023-11-22T04:21:03;8.50;;;3.20;;
79706;SDS011;69200;53.612;-2.416;2023-11-22T04:23:30;7.90;;;2.95;;
79706;SDS011;69200;53.612;-2.416;2023-11-22T04:25:56;7.43;;;2.75;;
79706;SDS011;69200;53.612;-2.416;2023-11-22T04:28:23;11.25;;;3.38;;
79706;SDS011;69200;53.612;-2.416;2023-11-22T04:30:49;8.82;;;3.05;;
79706;SDS011;69200;53.612;-2.416;2023-11-22T04:33:14;7.38;;;2.90;;
79706;SDS011;69200;53.612;-2.416;2023-11-22T04:35:39;8.52;;;3.60;;
79706;SDS011;69200;53.612;-2.416;2023-11-22T04:38:06;7.13;;;2.40;;
79706;SDS011;69200;53.612;-2.416;2023-11-22T04:40:32;9.00;;;3.28;;
79706;SDS011;69200;53.612;-2.416;2023-11-22T04:42:57;7.20;;;2.85;;
79706;SDS011;69200;53.612;-2.416;2023-11-22T04:45:22;9.48;;;3.10;;
79706;SDS011;69200;53.612;-2.416;2023-11-22T04:47:48;10.25;;;2.83;;
79706;SDS011;69200;53.612;-2.416;2023-11-22T04:50:13;5.55;;;2.33;;
79706;SDS011;69200;53.612;-2.416;2023-11-22T04:52:39;7.47;;;2.50;;
79706;SDS011;69200;53.612;-2.416;2023-11-22T04:55:04;7.00;;;2.75;;
79706;SDS011;69200;53.612;-2.416;2023-11-22T04:57:30;9.45;;;2.75;;
79706;SDS011;69200;53.612;-2.416;2023-11-22T04:59:55;8.43;;;3.08;;
79706;SDS011;69200;53.612;-2.416;2023-11-22T05:02:21;10.55;;;2.83;;
79706;SDS011;69200;53.612;-2.416;2023-11-22T05:04:47;7.70;;;2.72;;
79706;SDS011;69200;53.612;-2.416;2023-11-22T05:07:14;7.80;;;2.88;;
79706;SDS011;69200;53.612;-2.416;2023-11-22T05:09:40;8.13;;;2.97;;
79706;SDS011;69200;53.612;-2.416;2023-11-22T05:12:06;9.68;;;2.83;;
79706;SDS011;69200;53.612;-2.416;2023-11-22T05:14:31;8.18;;;2.75;;
79706;SDS011;69200;53.612;-2.416;2023-11-22T05:16:57;5.40;;;2.53;;
79706;SDS011;69200;53.612;-2.416;2023-11-22T05:19:22;6.07;;;2.22;;
79706;SDS011;69200;53.612;-2.416;2023-11-22T05:21:48;7.80;;;2.83;;
79706;SDS011;69200;53.612;-2.416;2023-11-22T05:24:13;7.72;;;2.70;;
79706;SDS011;69200;53.612;-2.416;2023-11-22T05:26:40;6.68;;;2.90;;
79706;SDS011;69200;53.612;-2.416;2023-11-22T05:29:05;8.98;;;3.15;;
79706;SDS011;69200;53.612;-2.416;2023-11-22T05:31:31;6.18;;;2.65;;
79706;SDS011;69200;53.612;-2.416;2023-11-22T05:33:56;5.72;;;2.53;;
79706;SDS011;69200;53.612;-2.416;2023-11-22T05:36:21;7.30;;;2.75;;
79706;SDS011;69200;53.612;-2.416;2023-11-22T05:38:47;8.27;;;2.78;;
79706;SDS011;69200;53.612;-2.416;2023-11-22T05:41:12;7.53;;;2.72;;
79706;SDS011;69200;53.612;-2.416;2023-11-22T05:43:37;7.15;;;2.20;;
79706;SDS011;69200;53.612;-2.416;2023-11-22T05:46:04;7.63;;;2.70;;
79706;SDS011;69200;53.612;-2.416;2023-11-22T05:48:29;4.85;;;2.33;;
79706;SDS011;69200;53.612;-2.416;2023-11-22T05:50:55;8.30;;;3.17;;
79706;SDS011;69200;53.612;-2.416;2023-11-22T05:53:20;8.75;;;2.45;;
79706;SDS011;69200;53.612;-2.416;2023-11-22T05:55:46;6.35;;;2.63;;
79706;SDS011;69200;53.612;-2.416;2023-11-22T05:58:15;7.80;;;3.22;;
79706;SDS011;69200;53.612;-2.416;2023-11-22T06:00:44;6.00;;;2.38;;
79706;SDS011;69200;53.612;-2.416;2023-11-22T06:03:11;8.35;;;2.67;;
79706;SDS011;69200;53.612;-2.416;2023-11-22T06:05:36;6.80;;;2.60;;
79706;SDS011;69200;53.612;-2.416;2023-11-22T06:08:02;7.57;;;2.55;;
79706;SDS011;69200;53.612;-2.416;2023-11-22T06:10:27;9.13;;;2.50;;
79706;SDS011;69200;53.612;-2.416;2023-11-22T06:12:53;8.70;;;2.53;;
79706;SDS011;69200;53.612;-2.416;2023-11-22T06:15:18;8.00;;;2.65;;
79706;SDS011;69200;53.612;-2.416;2023-11-22T06:17:46;8.02;;;3.05;;
79706;SDS011;69200;53.612;-2.416;2023-11-22T06:20:13;8.95;;;3.03;;
79706;SDS011;69200;53.612;-2.416;2023-11-22T06:22:39;8.45;;;2.90;;
79706;SDS011;69200;53.612;-2.416;2023-11-22T06:25:07;6.57;;;2.63;;
79706;SDS011;69200;53.612;-2.416;2023-11-22T06:27:33;7.95;;;2.38;;
79706;SDS011;69200;53.612;-2.416;2023-11-22T06:29:58;5.47;;;2.47;;
79706;SDS011;69200;53.612;-2.416;2023-11-22T06:32:23;6.70;;;2.80;;
79706;SDS011;69200;53.612;-2.416;2023-11-22T06:34:49;7.32;;;2.55;;
79706;SDS011;69200;53.612;-2.416;2023-11-22T06:37:14;6.75;;;2.25;;
79706;SDS011;69200;53.612;-2.416;2023-11-22T06:39:40;7.43;;;2.60;;
79706;SDS011;69200;53.612;-2.416;2023-11-22T06:42:05;5.45;;;2.53;;
79706;SDS011;69200;53.612;-2.416;2023-11-22T06:44:31;5.53;;;2.53;;
79706;SDS011;69200;53.612;-2.416;2023-11-22T06:46:57;8.23;;;2.35;;
79706;SDS011;69200;53.612;-2.416;2023-11-22T06:49:22;9.40;;;2.92;;
79706;SDS011;69200;53.612;-2.416;2023-11-22T06:51:48;6.28;;;2.45;;
79706;SDS011;69200;53.612;-2.416;2023-11-22T06:54:13;5.50;;;2.67;;
79706;SDS011;69200;53.612;-2.416;2023-11-22T06:56:38;7.68;;;2.75;;
79706;SDS011;69200;53.612;-2.416;2023-11-22T06:59:04;11.27;;;2.90;;
79706;SDS011;69200;53.612;-2.416;2023-11-22T07:01:29;12.10;;;3.33;;
79706;SDS011;69200;53.612;-2.416;2023-11-22T07:03:54;7.95;;;2.58;;
79706;SDS011;69200;53.612;-2.416;2023-11-22T07:06:20;5.53;;;2.20;;
79706;SDS011;69200;53.612;-2.416;2023-11-22T07:08:47;10.68;;;2.83;;
79706;SDS011;69200;53.612;-2.416;2023-11-22T07:11:13;10.43;;;2.83;;
79706;SDS011;69200;53.612;-2.416;2023-11-22T07:13:47;7.78;;;2.80;;
79706;SDS011;69200;53.612;-2.416;2023-11-22T07:16:13;10.90;;;2.63;;
79706;SDS011;69200;53.612;-2.416;2023-11-22T07:18:40;8.98;;;2.75;;
79706;SDS011;69200;53.612;-2.416;2023-11-22T07:21:05;6.55;;;2.60;;
79706;SDS011;69200;53.612;-2.416;2023-11-22T07:23:31;8.52;;;2.53;;
79706;SDS011;69200;53.612;-2.416;2023-11-22T07:25:56;8.52;;;2.88;;
79706;SDS011;69200;53.612;-2.416;2023-11-22T07:28:21;7.70;;;3.17;;
79706;SDS011;69200;53.612;-2.416;2023-11-22T07:30:47;8.70;;;2.90;;
79706;SDS011;69200;53.612;-2.416;2023-11-22T07:33:13;11.60;;;2.55;;
79706;SDS011;69200;53.612;-2.416;2023-11-22T07:35:42;7.95;;;2.78;;
79706;SDS011;69200;53.612;-2.416;2023-11-22T07:38:08;8.05;;;2.40;;
79706;SDS011;69200;53.612;-2.416;2023-11-22T07:40:35;9.70;;;2.90;;
79706;SDS011;69200;53.612;-2.416;2023-11-22T07:43:02;6.90;;;2.50;;
79706;SDS011;69200;53.612;-2.416;2023-11-22T07:45:30;6.95;;;2.83;;
79706;SDS011;69200;53.612;-2.416;2023-11-22T07:47:58;7.78;;;2.80;;
79706;SDS011;69200;53.612;-2.416;2023-11-22T07:50:25;6.20;;;2.45;;
79706;SDS011;69200;53.612;-2.416;2023-11-22T07:52:51;8.57;;;2.63;;
79706;SDS011;69200;53.612;-2.416;2023-11-22T07:55:16;5.65;;;2.97;;
79706;SDS011;69200;53.612;-2.416;2023-11-22T07:57:43;7.72;;;2.65;;
79706;SDS011;69200;53.612;-2.416;2023-11-22T08:00:09;10.02;;;2.67;;
79706;SDS011;69200;53.612;-2.416;2023-11-22T08:02:36;9.30;;;2.67;;
79706;SDS011;69200;53.612;-2.416;2023-11-22T08:05:04;9.15;;;3.03;;
79706;SDS011;69200;53.612;-2.416;2023-11-22T08:07:33;10.30;;;3.10;;
79706;SDS011;69200;53.612;-2.416;2023-11-22T08:09:59;8.98;;;3.03;;
79706;SDS011;69200;53.612;-2.416;2023-11-22T08:12:34;7.72;;;2.85;;
79706;SDS011;69200;53.612;-2.416;2023-11-22T08:14:59;8.43;;;2.80;;
79706;SDS011;69200;53.612;-2.416;2023-11-22T08:17:24;8.88;;;2.88;;
79706;SDS011;69200;53.612;-2.416;2023-11-22T08:19:50;7.40;;;2.42;;
79706;SDS011;69200;53.612;-2.416;2023-11-22T08:22:15;9.23;;;3.15;;
79706;SDS011;69200;53.612;-2.416;2023-11-22T08:24:41;8.35;;;2.78;;
79706;SDS011;69200;53.612;-2.416;2023-11-22T08:27:06;12.38;;;3.30;;
79706;SDS011;69200;53.612;-2.416;2023-11-22T08:29:32;8.75;;;3.35;;
79706;SDS011;69200;53.612;-2.416;2023-11-22T08:31:57;7.82;;;3.08;;
79706;SDS011;69200;53.612;-2.416;2023-11-22T08:34:23;6.55;;;2.25;;
79706;SDS011;69200;53.612;-2.416;2023-11-22T08:36:48;11.48;;;3.35;;
79706;SDS011;69200;53.612;-2.416;2023-11-22T08:39:14;9.80;;;2.95;;
79706;SDS011;69200;53.612;-2.416;2023-11-22T08:41:39;7.15;;;2.65;;
79706;SDS011;69200;53.612;-2.416;2023-11-22T08:44:04;8.60;;;3.08;;
79706;SDS011;69200;53.612;-2.416;2023-11-22T08:46:31;6.28;;;2.88;;
79706;SDS011;69200;53.612;-2.416;2023-11-22T08:48:57;7.00;;;2.60;;
79706;SDS011;69200;53.612;-2.416;2023-11-22T08:51:22;7.38;;;3.47;;
79706;SDS011;69200;53.612;-2.416;2023-11-22T08:53:48;7.15;;;2.97;;
79706;SDS011;69200;53.612;-2.416;2023-11-22T08:56:13;7.60;;;3.00;;
79706;SDS011;69200;53.612;-2.416;2023-11-22T08:58:40;11.02;;;3.60;;
79706;SDS011;69200;53.612;-2.416;2023-11-22T09:01:07;8.70;;;3.20;;
79706;SDS011;69200;53.612;-2.416;2023-11-22T09:03:33;6.22;;;2.60;;
79706;SDS011;69200;53.612;-2.416;2023-11-22T09:05:59;7.53;;;3.03;;
79706;SDS011;69200;53.612;-2.416;2023-11-22T09:08:25;6.60;;;2.78;;
79706;SDS011;69200;53.612;-2.416;2023-11-22T09:10:51;10.23;;;2.85;;
79706;SDS011;69200;53.612;-2.416;2023-11-22T09:13:16;4.93;;;2.25;;
79706;SDS011;69200;53.612;-2.416;2023-11-22T09:15:45;8.10;;;2.77;;
79706;SDS011;69200;53.612;-2.416;2023-11-22T09:18:10;7.38;;;2.88;;
79706;SDS011;69200;53.612;-2.416;2023-11-22T09:20:39;7.60;;;3.00;;
79706;SDS011;69200;53.612;-2.416;2023-11-22T09:23:05;7.60;;;2.53;;
79706;SDS011;69200;53.612;-2.416;2023-11-22T09:25:31;6.22;;;2.80;;
79706;SDS011;69200;53.612;-2.416;2023-11-22T09:27:58;7.57;;;2.88;;
79706;SDS011;69200;53.612;-2.416;2023-11-22T09:30:30;6.95;;;3.05;;
79706;SDS011;69200;53.612;-2.416;2023-11-22T09:33:10;7.65;;;2.85;;
79706;SDS011;69200;53.612;-2.416;2023-11-22T09:35:39;7.53;;;2.80;;
79706;SDS011;69200;53.612;-2.416;2023-11-22T09:38:06;6.45;;;2.90;;
79706;SDS011;69200;53.612;-2.416;2023-11-22T09:43:02;9.43;;;2.78;;
79706;SDS011;69200;53.612;-2.416;2023-11-22T09:45:29;5.25;;;2.33;;
79706;SDS011;69200;53.612;-2.416;2023-11-22T09:47:55;8.50;;;2.63;;
79706;SDS011;69200;53.612;-2.416;2023-11-22T09:53:14;6.70;;;2.83;;
79706;SDS011;69200;53.612;-2.416;2023-11-22T09:55:47;6.35;;;2.72;;
79706;SDS011;69200;53.612;-2.416;2023-11-22T09:58:14;7.57;;;2.60;;
79706;SDS011;69200;53.612;-2.416;2023-11-22T10:00:41;6.78;;;2.50;;
79706;SDS011;69200;53.612;-2.416;2023-11-22T10:03:08;6.68;;;2.72;;
79706;SDS011;69200;53.612;-2.416;2023-11-22T10:05:34;6.68;;;3.08;;
79706;SDS011;69200;53.612;-2.416;2023-11-22T10:08:00;7.68;;;3.00;;
79706;SDS011;69200;53.612;-2.416;2023-11-22T10:10:25;10.50;;;2.95;;
79706;SDS011;69200;53.612;-2.416;2023-11-22T10:12:53;7.82;;;3.25;;
79706;SDS011;69200;53.612;-2.416;2023-11-22T10:15:21;9.20;;;3.17;;
79706;SDS011;69200;53.612;-2.416;2023-11-22T10:17:57;6.82;;;2.75;;
79706;SDS011;69200;53.612;-2.416;2023-11-22T10:20:25;5.25;;;2.38;;
79706;SDS011;69200;53.612;-2.416;2023-11-22T10:23:00;9.18;;;3.38;;
79706;SDS011;69200;53.612;-2.416;2023-11-22T10:25:25;10.38;;;3.30;;
79706;SDS011;69200;53.612;-2.416;2023-11-22T10:27:51;9.50;;;3.85;;
79706;SDS011;69200;53.612;-2.416;2023-11-22T10:30:17;8.73;;;3.63;;
79706;SDS011;69200;53.612;-2.416;2023-11-22T10:32:43;9.77;;;4.10;;
79706;SDS011;69200;53.612;-2.416;2023-11-22T10:35:09;8.15;;;3.15;;
79706;SDS011;69200;53.612;-2.416;2023-11-22T10:37:36;5.82;;;2.92;;
79706;SDS011;69200;53.612;-2.416;2023-11-22T10:40:01;7.32;;;2.80;;
79706;SDS011;69200;53.612;-2.416;2023-11-22T10:42:30;10.68;;;3.92;;
79706;SDS011;69200;53.612;-2.416;2023-11-22T10:44:56;8.82;;;3.67;;
79706;SDS011;69200;53.612;-2.416;2023-11-22T10:47:27;13.35;;;4.82;;
79706;SDS011;69200;53.612;-2.416;2023-11-22T10:49:55;14.57;;;4.65;;
79706;SDS011;69200;53.612;-2.416;2023-11-22T10:52:20;13.52;;;3.58;;
79706;SDS011;69200;53.612;-2.416;2023-11-22T10:54:51;7.30;;;2.95;;
79706;SDS011;69200;53.612;-2.416;2023-11-22T10:57:24;8.13;;;3.00;;
79706;SDS011;69200;53.612;-2.416;2023-11-22T10:59:53;10.02;;;2.95;;
79706;SDS011;69200;53.612;-2.416;2023-11-22T11:02:21;14.35;;;3.10;;
79706;SDS011;69200;53.612;-2.416;2023-11-22T11:04:55;16.02;;;2.60;;
79706;SDS011;69200;53.612;-2.416;2023-11-22T11:07:32;8.50;;;2.53;;
79706;SDS011;69200;53.612;-2.416;2023-11-22T11:10:02;8.15;;;2.13;;
79706;SDS011;69200;53.612;-2.416;2023-11-22T11:12:28;13.75;;;2.95;;
79706;SDS011;69200;53.612;-2.416;2023-11-22T11:14:53;6.55;;;2.03;;
79706;SDS011;69200;53.612;-2.416;2023-11-22T11:17:19;5.75;;;1.73;;
79706;SDS011;69200;53.612;-2.416;2023-11-22T11:19:46;4.88;;;1.80;;
79706;SDS011;69200;53.612;-2.416;2023-11-22T11:22:11;6.97;;;1.77;;
79706;SDS011;69200;53.612;-2.416;2023-11-22T11:24:38;5.03;;;1.50;;
79706;SDS011;69200;53.612;-2.416;2023-11-22T11:27:06;5.43;;;1.83;;
79706;SDS011;69200;53.612;-2.416;2023-11-22T11:29:34;5.35;;;1.60;;
79706;SDS011;69200;53.612;-2.416;2023-11-22T11:32:04;8.57;;;1.85;;
79706;SDS011;69200;53.612;-2.416;2023-11-22T11:34:38;5.32;;;1.30;;
79706;SDS011;69200;53.612;-2.416;2023-11-22T11:37:13;7.55;;;1.42;;
79706;SDS011;69200;53.612;-2.416;2023-11-22T11:39:39;5.07;;;1.38;;
79706;SDS011;69200;53.612;-2.416;2023-11-22T11:42:11;3.45;;;1.00;;
79706;SDS011;69200;53.612;-2.416;2023-11-22T11:47:22;5.47;;;2.05;;
79706;SDS011;69200;53.612;-2.416;2023-11-22T11:49:48;7.78;;;2.95;;
79706;SDS011;69200;53.612;-2.416;2023-11-22T11:52:15;7.95;;;2.08;;
79706;SDS011;69200;53.612;-2.416;2023-11-22T11:54:41;9.35;;;1.88;;
79706;SDS011;69200;53.612;-2.416;2023-11-22T11:57:06;5.57;;;1.50;;
79706;SDS011;69200;53.612;-2.416;2023-11-22T11:59:33;6.35;;;1.65;;
79706;SDS011;69200;53.612;-2.416;2023-11-22T12:02:00;6.35;;;1.60;;
79706;SDS011;69200;53.612;-2.416;2023-11-22T12:04:25;2.75;;;1.00;;
79706;SDS011;69200;53.612;-2.416;2023-11-22T12:06:51;5.30;;;1.30;;
79706;SDS011;69200;53.612;-2.416;2023-11-22T12:09:26;6.05;;;1.48;;
79706;SDS011;69200;53.612;-2.416;2023-11-22T12:11:55;4.50;;;1.40;;
79706;SDS011;69200;53.612;-2.416;2023-11-22T12:14:20;3.15;;;1.17;;
79706;SDS011;69200;53.612;-2.416;2023-11-22T12:16:50;5.53;;;1.27;;
79706;SDS011;69200;53.612;-2.416;2023-11-22T12:19:22;4.43;;;1.15;;
79706;SDS011;69200;53.612;-2.416;2023-11-22T12:21:49;3.35;;;1.20;;
79706;SDS011;69200;53.612;-2.416;2023-11-22T12:24:15;3.00;;;0.98;;
79706;SDS011;69200;53.612;-2.416;2023-11-22T12:26:44;2.78;;;1.00;;
79706;SDS011;69200;53.612;-2.416;2023-11-22T12:29:16;2.33;;;0.85;;
79706;SDS011;69200;53.612;-2.416;2023-11-22T12:31:52;2.80;;;0.98;;
79706;SDS011;69200;53.612;-2.416;2023-11-22T12:34:20;3.28;;;1.20;;
79706;SDS011;69200;53.612;-2.416;2023-11-22T12:36:47;6.95;;;1.50;;
79706;SDS011;69200;53.612;-2.416;2023-11-22T12:39:12;3.33;;;1.10;;
79706;SDS011;69200;53.612;-2.416;2023-11-22T12:41:42;3.67;;;1.05;;
79706;SDS011;69200;53.612;-2.416;2023-11-22T12:44:10;2.53;;;0.80;;
79706;SDS011;69200;53.612;-2.416;2023-11-22T12:46:50;3.35;;;0.95;;
79706;SDS011;69200;53.612;-2.416;2023-11-22T12:49:22;6.55;;;1.95;;
79706;SDS011;69200;53.612;-2.416;2023-11-22T12:51:48;2.03;;;0.70;;
79706;SDS011;69200;53.612;-2.416;2023-11-22T12:54:15;4.97;;;1.00;;
79706;SDS011;69200;53.612;-2.416;2023-11-22T12:56:41;9.13;;;1.02;;
79706;SDS011;69200;53.612;-2.416;2023-11-22T12:59:07;3.33;;;0.95;;
79706;SDS011;69200;53.612;-2.416;2023-11-22T13:01:34;3.17;;;0.85;;
79706;SDS011;69200;53.612;-2.416;2023-11-22T13:04:00;4.20;;;1.20;;
79706;SDS011;69200;53.612;-2.416;2023-11-22T13:06:25;9.82;;;1.00;;
79706;SDS011;69200;53.612;-2.416;2023-11-22T13:08:51;2.78;;;0.93;;
79706;SDS011;69200;53.612;-2.416;2023-11-22T13:11:18;2.30;;;0.80;;
79706;SDS011;69200;53.612;-2.416;2023-11-22T13:13:44;1.63;;;0.52;;
79706;SDS011;69200;53.612;-2.416;2023-11-22T13:16:10;5.47;;;1.15;;
79706;SDS011;69200;53.612;-2.416;2023-11-22T13:18:35;5.25;;;0.93;;
79706;SDS011;69200;53.612;-2.416;2023-11-22T13:21:02;3.75;;;1.00;;
79706;SDS011;69200;53.612;-2.416;2023-11-22T13:23:28;5.72;;;0.90;;
79706;SDS011;69200;53.612;-2.416;2023-11-22T13:25:53;6.78;;;1.25;;
79706;SDS011;69200;53.612;-2.416;2023-11-22T13:28:18;7.13;;;1.55;;
79706;SDS011;69200;53.612;-2.416;2023-11-22T13:30:44;3.40;;;1.10;;
79706;SDS011;69200;53.612;-2.416;2023-11-22T13:33:09;4.40;;;1.05;;
79706;SDS011;69200;53.612;-2.416;2023-11-22T13:35:35;5.68;;;1.30;;
79706;SDS011;69200;53.612;-2.416;2023-11-22T13:38:03;4.63;;;1.10;;
79706;SDS011;69200;53.612;-2.416;2023-11-22T13:40:32;4.40;;;1.75;;
79706;SDS011;69200;53.612;-2.416;2023-11-22T13:42:58;3.90;;;1.20;;
79706;SDS011;69200;53.612;-2.416;2023-11-22T13:45:25;4.50;;;1.10;;
79706;SDS011;69200;53.612;-2.416;2023-11-22T13:47:51;4.55;;;1.55;;
79706;SDS011;69200;53.612;-2.416;2023-11-22T13:50:28;5.70;;;1.50;;
79706;SDS011;69200;53.612;-2.416;2023-11-22T13:52:54;6.80;;;1.48;;
79706;SDS011;69200;53.612;-2.416;2023-11-22T13:55:21;4.70;;;1.10;;
79706;SDS011;69200;53.612;-2.416;2023-11-22T13:57:53;3.00;;;1.05;;
79706;SDS011;69200;53.612;-2.416;2023-11-22T14:00:21;3.05;;;0.90;;
79706;SDS011;69200;53.612;-2.416;2023-11-22T14:02:50;3.25;;;0.90;;
79706;SDS011;69200;53.612;-2.416;2023-11-22T14:05:17;3.88;;;0.75;;
79706;SDS011;69200;53.612;-2.416;2023-11-22T14:07:42;4.00;;;1.38;;
79706;SDS011;69200;53.612;-2.416;2023-11-22T14:10:09;4.03;;;1.13;;
79706;SDS011;69200;53.612;-2.416;2023-11-22T14:12:36;3.30;;;1.10;;
79706;SDS011;69200;53.612;-2.416;2023-11-22T14:15:02;2.55;;;0.88;;
79706;SDS011;69200;53.612;-2.416;2023-11-22T14:17:30;1.45;;;0.60;;
79706;SDS011;69200;53.612;-2.416;2023-11-22T14:19:55;3.22;;;0.60;;
79706;SDS011;69200;53.612;-2.416;2023-11-22T14:22:21;2.83;;;0.70;;
79706;SDS011;69200;53.612;-2.416;2023-11-22T14:24:48;6.57;;;0.90;;
79706;SDS011;69200;53.612;-2.416;2023-11-22T14:27:15;2.85;;;0.82;;
79706;SDS011;69200;53.612;-2.416;2023-11-22T14:29:40;2.45;;;0.65;;
79706;SDS011;69200;53.612;-2.416;2023-11-22T14:32:07;5.15;;;0.95;;
79706;SDS011;69200;53.612;-2.416;2023-11-22T14:34:32;2.83;;;0.60;;